sensor_id;sensor_type;location;lat;lon;timestamp;P1;durP1;ratioP1;P2;durP2;ratioP2
75935;SDS011;64614;32.062;34.834;2023-07-20T00:02:23;5.38;;;2.60;;
75935;SDS011;64614;32.062;34.834;2023-07-20T00:04:49;4.03;;;1.92;;
75935;SDS011;64614;32.062;34.834;2023-07-20T00:07:15;4.25;;;2.30;;
75935;SDS011;64614;32.062;34.834;2023-07-20T00:09:40;4.32;;;2.10;;
75935;SDS011;64614;32.062;34.834;2023-07-20T00:12:06;4.22;;;2.25;;
75935;SDS011;64614;32.062;34.834;2023-07-20T00:14:32;3.53;;;2.33;;
75935;SDS011;64614;32.062;34.834;2023-07-20T00:16:58;4.63;;;2.50;;
75935;SDS011;64614;32.062;34.834;2023-07-20T00:19:26;3.85;;;2.30;;
75935;SDS011;64614;32.062;34.834;2023-07-20T00:21:52;4.82;;;2.30;;
75935;SDS011;64614;32.062;34.834;2023-07-20T00:24:19;3.75;;;2.20;;
75935;SDS011;64614;32.062;34.834;2023-07-20T00:26:45;4.88;;;2.10;;
75935;SDS011;64614;32.062;34.834;2023-07-20T00:29:11;5.03;;;2.42;;
75935;SDS011;64614;32.062;34.834;2023-07-20T00:31:37;4.43;;;2.20;;
75935;SDS011;64614;32.062;34.834;2023-07-20T00:34:05;4.75;;;2.60;;
75935;SDS011;64614;32.062;34.834;2023-07-20T00:36:32;5.05;;;2.60;;
75935;SDS011;64614;32.062;34.834;2023-07-20T00:38:57;4.82;;;2.13;;
75935;SDS011;64614;32.062;34.834;2023-07-20T00:41:23;5.28;;;2.50;;
75935;SDS011;64614;32.062;34.834;2023-07-20T00:43:49;4.65;;;2.28;;
75935;SDS011;64614;32.062;34.834;2023-07-20T00:46:16;4.80;;;2.60;;
75935;SDS011;64614;32.062;34.834;2023-07-20T00:48:41;5.55;;;2.58;;
75935;SDS011;64614;32.062;34.834;2023-07-20T00:51:07;4.72;;;2.30;;
75935;SDS011;64614;32.062;34.834;2023-07-20T00:53:34;4.65;;;2.30;;
75935;SDS011;64614;32.062;34.834;2023-07-20T00:55:59;5.05;;;2.60;;
75935;SDS011;64614;32.062;34.834;2023-07-20T00:58:25;7.38;;;2.40;;
75935;SDS011;64614;32.062;34.834;2023-07-20T01:00:51;5.32;;;2.53;;
75935;SDS011;64614;32.062;34.834;2023-07-20T01:03:17;4.82;;;2.50;;
75935;SDS011;64614;32.062;34.834;2023-07-20T01:05:59;4.90;;;2.78;;
75935;SDS011;64614;32.062;34.834;2023-07-20T01:08:43;5.35;;;2.88;;
75935;SDS011;64614;32.062;34.834;2023-07-20T01:13:57;5.80;;;3.08;;
75935;SDS011;64614;32.062;34.834;2023-07-20T01:16:23;5.40;;;3.00;;
75935;SDS011;64614;32.062;34.834;2023-07-20T01:18:49;5.60;;;2.95;;
75935;SDS011;64614;32.062;34.834;2023-07-20T01:21:18;5.90;;;3.33;;
75935;SDS011;64614;32.062;34.834;2023-07-20T01:24:16;5.82;;;3.00;;
75935;SDS011;64614;32.062;34.834;2023-07-20T01:32:44;5.10;;;2.90;;
75935;SDS011;64614;32.062;34.834;2023-07-20T01:35:12;7.13;;;3.47;;
75935;SDS011;64614;32.062;34.834;2023-07-20T01:37:40;6.60;;;3.28;;
75935;SDS011;64614;32.062;34.834;2023-07-20T01:40:09;5.18;;;3.05;;
75935;SDS011;64614;32.062;34.834;2023-07-20T01:42:35;6.30;;;3.30;;
75935;SDS011;64614;32.062;34.834;2023-07-20T01:45:01;5.70;;;3.00;;
75935;SDS011;64614;32.062;34.834;2023-07-20T01:47:27;6.10;;;3.03;;
75935;SDS011;64614;32.062;34.834;2023-07-20T01:49:52;6.47;;;2.97;;
75935;SDS011;64614;32.062;34.834;2023-07-20T01:52:18;6.22;;;3.13;;
75935;SDS011;64614;32.062;34.834;2023-07-20T01:54:44;6.72;;;3.03;;
75935;SDS011;64614;32.062;34.834;2023-07-20T01:57:09;5.97;;;3.08;;
75935;SDS011;64614;32.062;34.834;2023-07-20T01:59:35;6.93;;;3.25;;
75935;SDS011;64614;32.062;34.834;2023-07-20T02:02:00;6.47;;;3.42;;
75935;SDS011;64614;32.062;34.834;2023-07-20T02:04:26;6.28;;;3.38;;
75935;SDS011;64614;32.062;34.834;2023-07-20T02:06:52;5.20;;;3.13;;
75935;SDS011;64614;32.062;34.834;2023-07-20T02:09:17;6.72;;;3.38;;
75935;SDS011;64614;32.062;34.834;2023-07-20T02:11:43;7.18;;;3.40;;
75935;SDS011;64614;32.062;34.834;2023-07-20T02:14:08;6.43;;;3.35;;
75935;SDS011;64614;32.062;34.834;2023-07-20T02:16:34;6.72;;;3.20;;
75935;SDS011;64614;32.062;34.834;2023-07-20T02:19:00;7.15;;;3.58;;
75935;SDS011;64614;32.062;34.834;2023-07-20T02:21:25;6.95;;;3.60;;
75935;SDS011;64614;32.062;34.834;2023-07-20T02:23:51;6.50;;;3.50;;
75935;SDS011;64614;32.062;34.834;2023-07-20T02:26:17;6.00;;;3.45;;
75935;SDS011;64614;32.062;34.834;2023-07-20T02:28:42;5.10;;;2.95;;
75935;SDS011;64614;32.062;34.834;2023-07-20T02:31:08;6.70;;;3.60;;
75935;SDS011;64614;32.062;34.834;2023-07-20T02:33:33;6.25;;;3.00;;
75935;SDS011;64614;32.062;34.834;2023-07-20T02:35:59;5.70;;;3.03;;
75935;SDS011;64614;32.062;34.834;2023-07-20T02:38:25;6.45;;;3.28;;
75935;SDS011;64614;32.062;34.834;2023-07-20T02:40:50;6.68;;;3.15;;
75935;SDS011;64614;32.062;34.834;2023-07-20T02:43:16;7.20;;;3.08;;
75935;SDS011;64614;32.062;34.834;2023-07-20T02:45:42;6.43;;;3.65;;
75935;SDS011;64614;32.062;34.834;2023-07-20T02:48:08;6.72;;;3.25;;
75935;SDS011;64614;32.062;34.834;2023-07-20T02:50:34;7.25;;;3.33;;
75935;SDS011;64614;32.062;34.834;2023-07-20T02:53:00;6.13;;;3.10;;
75935;SDS011;64614;32.062;34.834;2023-07-20T02:55:26;6.85;;;3.55;;
75935;SDS011;64614;32.062;34.834;2023-07-20T02:57:51;5.55;;;3.30;;
75935;SDS011;64614;32.062;34.834;2023-07-20T03:00:17;6.45;;;3.38;;
75935;SDS011;64614;32.062;34.834;2023-07-20T03:02:44;6.20;;;3.05;;
75935;SDS011;64614;32.062;34.834;2023-07-20T03:05:13;6.70;;;3.70;;
75935;SDS011;64614;32.062;34.834;2023-07-20T03:07:39;6.97;;;3.40;;
75935;SDS011;64614;32.062;34.834;2023-07-20T03:10:05;5.55;;;3.17;;
75935;SDS011;64614;32.062;34.834;2023-07-20T03:12:34;8.05;;;3.33;;
75935;SDS011;64614;32.062;34.834;2023-07-20T03:15:00;6.93;;;3.60;;
75935;SDS011;64614;32.062;34.834;2023-07-20T03:17:26;7.90;;;3.67;;
75935;SDS011;64614;32.062;34.834;2023-07-20T03:19:51;5.50;;;3.38;;
75935;SDS011;64614;32.062;34.834;2023-07-20T03:22:17;6.00;;;3.25;;
75935;SDS011;64614;32.062;34.834;2023-07-20T03:24:43;6.35;;;3.10;;
75935;SDS011;64614;32.062;34.834;2023-07-20T03:27:09;6.47;;;3.40;;
75935;SDS011;64614;32.062;34.834;2023-07-20T03:29:34;7.28;;;3.65;;
75935;SDS011;64614;32.062;34.834;2023-07-20T03:32:00;6.07;;;3.20;;
75935;SDS011;64614;32.062;34.834;2023-07-20T03:34:26;6.70;;;3.00;;
75935;SDS011;64614;32.062;34.834;2023-07-20T03:36:51;6.22;;;3.58;;
75935;SDS011;64614;32.062;34.834;2023-07-20T03:39:17;7.22;;;3.60;;
75935;SDS011;64614;32.062;34.834;2023-07-20T03:41:42;6.43;;;3.33;;
75935;SDS011;64614;32.062;34.834;2023-07-20T03:44:08;6.45;;;3.20;;
75935;SDS011;64614;32.062;34.834;2023-07-20T03:46:34;7.70;;;3.60;;
75935;SDS011;64614;32.062;34.834;2023-07-20T03:48:59;6.35;;;3.30;;
75935;SDS011;64614;32.062;34.834;2023-07-20T03:51:25;6.75;;;3.30;;
75935;SDS011;64614;32.062;34.834;2023-07-20T03:53:51;7.10;;;3.60;;
75935;SDS011;64614;32.062;34.834;2023-07-20T03:56:17;5.95;;;3.15;;
75935;SDS011;64614;32.062;34.834;2023-07-20T03:58:42;5.93;;;3.40;;
75935;SDS011;64614;32.062;34.834;2023-07-20T04:01:08;6.88;;;3.42;;
75935;SDS011;64614;32.062;34.834;2023-07-20T04:03:35;5.80;;;3.20;;
75935;SDS011;64614;32.062;34.834;2023-07-20T04:06:01;6.78;;;3.20;;
75935;SDS011;64614;32.062;34.834;2023-07-20T04:08:27;6.90;;;3.42;;
75935;SDS011;64614;32.062;34.834;2023-07-20T04:10:52;8.88;;;3.63;;
75935;SDS011;64614;32.062;34.834;2023-07-20T04:13:18;8.00;;;3.40;;
75935;SDS011;64614;32.062;34.834;2023-07-20T04:15:44;7.13;;;3.40;;
75935;SDS011;64614;32.062;34.834;2023-07-20T04:18:10;7.07;;;3.72;;
75935;SDS011;64614;32.062;34.834;2023-07-20T04:20:35;6.47;;;3.15;;
75935;SDS011;64614;32.062;34.834;2023-07-20T04:23:01;7.53;;;3.35;;
75935;SDS011;64614;32.062;34.834;2023-07-20T04:25:27;8.27;;;3.70;;
75935;SDS011;64614;32.062;34.834;2023-07-20T04:27:52;7.80;;;3.30;;
75935;SDS011;64614;32.062;34.834;2023-07-20T04:30:18;6.60;;;3.65;;
75935;SDS011;64614;32.062;34.834;2023-07-20T04:32:45;7.50;;;4.03;;
75935;SDS011;64614;32.062;34.834;2023-07-20T04:35:16;9.07;;;3.78;;
75935;SDS011;64614;32.062;34.834;2023-07-20T04:38:02;9.23;;;4.03;;
75935;SDS011;64614;32.062;34.834;2023-07-20T04:40:27;9.75;;;4.05;;
75935;SDS011;64614;32.062;34.834;2023-07-20T04:42:53;8.43;;;3.95;;
75935;SDS011;64614;32.062;34.834;2023-07-20T04:45:19;7.93;;;3.90;;
75935;SDS011;64614;32.062;34.834;2023-07-20T04:47:44;6.93;;;4.00;;
75935;SDS011;64614;32.062;34.834;2023-07-20T04:50:10;6.60;;;3.90;;
75935;SDS011;64614;32.062;34.834;2023-07-20T04:52:35;6.38;;;3.35;;
75935;SDS011;64614;32.062;34.834;2023-07-20T04:55:01;7.43;;;3.60;;
75935;SDS011;64614;32.062;34.834;2023-07-20T04:57:29;6.40;;;3.50;;
75935;SDS011;64614;32.062;34.834;2023-07-20T04:59:55;6.78;;;4.07;;
75935;SDS011;64614;32.062;34.834;2023-07-20T05:02:20;6.72;;;3.33;;
75935;SDS011;64614;32.062;34.834;2023-07-20T05:04:46;5.85;;;3.08;;
75935;SDS011;64614;32.062;34.834;2023-07-20T05:07:12;6.05;;;3.50;;
75935;SDS011;64614;32.062;34.834;2023-07-20T05:09:37;5.88;;;3.20;;
75935;SDS011;64614;32.062;34.834;2023-07-20T05:12:03;7.03;;;3.50;;
75935;SDS011;64614;32.062;34.834;2023-07-20T05:14:29;6.15;;;3.17;;
75935;SDS011;64614;32.062;34.834;2023-07-20T05:16:54;7.20;;;3.40;;
75935;SDS011;64614;32.062;34.834;2023-07-20T05:19:20;6.47;;;3.25;;
75935;SDS011;64614;32.062;34.834;2023-07-20T05:21:46;5.78;;;3.17;;
75935;SDS011;64614;32.062;34.834;2023-07-20T05:24:11;6.20;;;3.28;;
75935;SDS011;64614;32.062;34.834;2023-07-20T05:26:37;7.82;;;3.38;;
75935;SDS011;64614;32.062;34.834;2023-07-20T05:29:03;6.43;;;3.08;;
75935;SDS011;64614;32.062;34.834;2023-07-20T05:31:29;6.28;;;3.30;;
75935;SDS011;64614;32.062;34.834;2023-07-20T05:33:55;8.32;;;3.33;;
75935;SDS011;64614;32.062;34.834;2023-07-20T05:36:21;6.93;;;3.30;;
75935;SDS011;64614;32.062;34.834;2023-07-20T05:38:47;6.97;;;3.33;;
75935;SDS011;64614;32.062;34.834;2023-07-20T05:41:13;7.82;;;3.58;;
75935;SDS011;64614;32.062;34.834;2023-07-20T05:43:38;7.80;;;3.75;;
75935;SDS011;64614;32.062;34.834;2023-07-20T05:46:04;6.35;;;3.25;;
75935;SDS011;64614;32.062;34.834;2023-07-20T05:48:30;7.72;;;3.58;;
75935;SDS011;64614;32.062;34.834;2023-07-20T05:50:56;8.35;;;3.42;;
75935;SDS011;64614;32.062;34.834;2023-07-20T05:53:21;7.50;;;3.50;;
75935;SDS011;64614;32.062;34.834;2023-07-20T05:55:53;6.80;;;3.53;;
75935;SDS011;64614;32.062;34.834;2023-07-20T05:58:19;6.60;;;3.30;;
75935;SDS011;64614;32.062;34.834;2023-07-20T06:00:48;7.38;;;3.92;;
75935;SDS011;64614;32.062;34.834;2023-07-20T06:03:15;8.10;;;3.45;;
75935;SDS011;64614;32.062;34.834;2023-07-20T06:05:43;7.18;;;3.70;;
75935;SDS011;64614;32.062;34.834;2023-07-20T06:08:10;7.63;;;3.85;;
75935;SDS011;64614;32.062;34.834;2023-07-20T06:10:36;7.10;;;3.35;;
75935;SDS011;64614;32.062;34.834;2023-07-20T06:13:02;7.60;;;3.30;;
75935;SDS011;64614;32.062;34.834;2023-07-20T06:15:28;5.95;;;3.40;;
75935;SDS011;64614;32.062;34.834;2023-07-20T06:17:56;7.45;;;3.50;;
75935;SDS011;64614;32.062;34.834;2023-07-20T06:20:23;7.95;;;4.05;;
75935;SDS011;64614;32.062;34.834;2023-07-20T06:22:49;6.80;;;3.50;;
75935;SDS011;64614;32.062;34.834;2023-07-20T06:25:15;6.32;;;3.30;;
75935;SDS011;64614;32.062;34.834;2023-07-20T06:27:41;7.97;;;3.30;;
75935;SDS011;64614;32.062;34.834;2023-07-20T06:30:08;8.23;;;3.53;;
75935;SDS011;64614;32.062;34.834;2023-07-20T06:32:34;7.60;;;3.70;;
75935;SDS011;64614;32.062;34.834;2023-07-20T06:34:59;6.50;;;3.65;;
75935;SDS011;64614;32.062;34.834;2023-07-20T06:37:25;7.45;;;3.60;;
75935;SDS011;64614;32.062;34.834;2023-07-20T06:39:51;8.52;;;4.03;;
75935;SDS011;64614;32.062;34.834;2023-07-20T06:42:16;8.32;;;3.58;;
75935;SDS011;64614;32.062;34.834;2023-07-20T06:44:42;7.20;;;3.53;;
75935;SDS011;64614;32.062;34.834;2023-07-20T06:47:07;6.63;;;3.65;;
75935;SDS011;64614;32.062;34.834;2023-07-20T06:49:33;6.28;;;3.50;;
75935;SDS011;64614;32.062;34.834;2023-07-20T06:51:59;6.72;;;3.40;;
75935;SDS011;64614;32.062;34.834;2023-07-20T06:54:24;8.93;;;4.43;;
75935;SDS011;64614;32.062;34.834;2023-07-20T06:56:50;7.60;;;3.30;;
75935;SDS011;64614;32.062;34.834;2023-07-20T06:59:16;7.68;;;3.28;;
75935;SDS011;64614;32.062;34.834;2023-07-20T07:01:42;6.80;;;3.40;;
75935;SDS011;64614;32.062;34.834;2023-07-20T07:04:08;8.32;;;3.85;;
75935;SDS011;64614;32.062;34.834;2023-07-20T07:06:33;6.63;;;3.58;;
75935;SDS011;64614;32.062;34.834;2023-07-20T07:09:00;8.02;;;3.90;;
75935;SDS011;64614;32.062;34.834;2023-07-20T07:11:26;9.85;;;3.72;;
75935;SDS011;64614;32.062;34.834;2023-07-20T07:13:53;6.90;;;3.70;;
75935;SDS011;64614;32.062;34.834;2023-07-20T07:16:18;7.50;;;3.65;;
75935;SDS011;64614;32.062;34.834;2023-07-20T07:18:47;7.53;;;3.60;;
75935;SDS011;64614;32.062;34.834;2023-07-20T07:21:15;6.95;;;3.30;;
75935;SDS011;64614;32.062;34.834;2023-07-20T07:23:41;6.70;;;3.28;;
75935;SDS011;64614;32.062;34.834;2023-07-20T07:26:07;7.53;;;3.55;;
75935;SDS011;64614;32.062;34.834;2023-07-20T07:28:32;6.88;;;3.63;;
75935;SDS011;64614;32.062;34.834;2023-07-20T07:30:58;6.97;;;3.10;;
75935;SDS011;64614;32.062;34.834;2023-07-20T07:33:24;7.05;;;3.78;;
75935;SDS011;64614;32.062;34.834;2023-07-20T07:35:50;6.72;;;3.25;;
75935;SDS011;64614;32.062;34.834;2023-07-20T07:38:19;6.10;;;3.33;;
75935;SDS011;64614;32.062;34.834;2023-07-20T07:40:45;5.00;;;2.97;;
75935;SDS011;64614;32.062;34.834;2023-07-20T07:43:11;7.05;;;3.10;;
75935;SDS011;64614;32.062;34.834;2023-07-20T07:45:39;6.60;;;3.55;;
75935;SDS011;64614;32.062;34.834;2023-07-20T07:48:06;6.10;;;3.42;;
75935;SDS011;64614;32.062;34.834;2023-07-20T07:50:32;5.85;;;3.00;;
75935;SDS011;64614;32.062;34.834;2023-07-20T07:52:58;6.35;;;3.20;;
75935;SDS011;64614;32.062;34.834;2023-07-20T07:55:24;5.95;;;3.33;;
75935;SDS011;64614;32.062;34.834;2023-07-20T07:57:51;6.95;;;3.50;;
75935;SDS011;64614;32.062;34.834;2023-07-20T08:00:18;6.18;;;3.60;;
75935;SDS011;64614;32.062;34.834;2023-07-20T08:02:44;5.85;;;3.30;;
75935;SDS011;64614;32.062;34.834;2023-07-20T08:05:14;5.57;;;2.80;;
75935;SDS011;64614;32.062;34.834;2023-07-20T08:07:39;6.03;;;2.85;;
75935;SDS011;64614;32.062;34.834;2023-07-20T08:10:06;6.95;;;3.10;;
75935;SDS011;64614;32.062;34.834;2023-07-20T08:12:32;6.55;;;3.30;;
75935;SDS011;64614;32.062;34.834;2023-07-20T08:14:57;6.18;;;3.42;;
75935;SDS011;64614;32.062;34.834;2023-07-20T08:17:23;6.00;;;3.38;;
75935;SDS011;64614;32.062;34.834;2023-07-20T08:19:49;6.38;;;3.20;;
75935;SDS011;64614;32.062;34.834;2023-07-20T08:22:15;6.82;;;3.30;;
75935;SDS011;64614;32.062;34.834;2023-07-20T08:24:41;6.25;;;3.33;;
75935;SDS011;64614;32.062;34.834;2023-07-20T08:27:07;7.22;;;3.60;;
75935;SDS011;64614;32.062;34.834;2023-07-20T08:29:34;6.80;;;3.70;;
75935;SDS011;64614;32.062;34.834;2023-07-20T08:32:00;6.53;;;3.40;;
75935;SDS011;64614;32.062;34.834;2023-07-20T08:34:26;6.20;;;3.42;;
75935;SDS011;64614;32.062;34.834;2023-07-20T08:36:52;5.97;;;3.67;;
75935;SDS011;64614;32.062;34.834;2023-07-20T08:39:18;5.63;;;3.15;;
75935;SDS011;64614;32.062;34.834;2023-07-20T08:41:43;4.80;;;2.80;;
75935;SDS011;64614;32.062;34.834;2023-07-20T08:44:10;6.35;;;3.15;;
75935;SDS011;64614;32.062;34.834;2023-07-20T08:46:37;5.00;;;2.88;;
75935;SDS011;64614;32.062;34.834;2023-07-20T08:49:04;5.18;;;2.80;;
75935;SDS011;64614;32.062;34.834;2023-07-20T08:51:31;4.50;;;2.75;;
75935;SDS011;64614;32.062;34.834;2023-07-20T08:53:58;5.90;;;3.30;;
75935;SDS011;64614;32.062;34.834;2023-07-20T08:56:25;5.35;;;3.13;;
75935;SDS011;64614;32.062;34.834;2023-07-20T08:58:54;5.18;;;2.92;;
75935;SDS011;64614;32.062;34.834;2023-07-20T09:01:20;4.75;;;2.65;;
75935;SDS011;64614;32.062;34.834;2023-07-20T09:03:47;4.75;;;2.60;;
75935;SDS011;64614;32.062;34.834;2023-07-20T09:06:14;5.28;;;3.13;;
75935;SDS011;64614;32.062;34.834;2023-07-20T09:08:41;4.35;;;2.83;;
75935;SDS011;64614;32.062;34.834;2023-07-20T09:11:07;4.20;;;2.50;;
75935;SDS011;64614;32.062;34.834;2023-07-20T09:13:33;5.13;;;2.83;;
75935;SDS011;64614;32.062;34.834;2023-07-20T09:16:00;4.60;;;2.65;;
75935;SDS011;64614;32.062;34.834;2023-07-20T09:18:26;4.72;;;2.80;;
75935;SDS011;64614;32.062;34.834;2023-07-20T09:21:04;4.18;;;2.70;;
75935;SDS011;64614;32.062;34.834;2023-07-20T09:23:35;4.95;;;3.20;;
75935;SDS011;64614;32.062;34.834;2023-07-20T09:26:11;5.40;;;2.88;;
75935;SDS011;64614;32.062;34.834;2023-07-20T09:28:57;4.50;;;2.88;;
75935;SDS011;64614;32.062;34.834;2023-07-20T09:31:22;4.32;;;2.78;;
75935;SDS011;64614;32.062;34.834;2023-07-20T09:33:48;5.30;;;2.85;;
75935;SDS011;64614;32.062;34.834;2023-07-20T09:36:15;5.00;;;2.90;;
75935;SDS011;64614;32.062;34.834;2023-07-20T09:38:43;4.15;;;2.70;;
75935;SDS011;64614;32.062;34.834;2023-07-20T09:41:15;5.38;;;2.88;;
75935;SDS011;64614;32.062;34.834;2023-07-20T09:43:43;4.70;;;2.90;;
75935;SDS011;64614;32.062;34.834;2023-07-20T09:46:10;4.70;;;3.00;;
75935;SDS011;64614;32.062;34.834;2023-07-20T09:48:36;4.30;;;2.85;;
75935;SDS011;64614;32.062;34.834;2023-07-20T09:51:02;5.18;;;2.97;;
75935;SDS011;64614;32.062;34.834;2023-07-20T09:53:30;4.78;;;2.80;;
75935;SDS011;64614;32.062;34.834;2023-07-20T09:55:58;5.28;;;2.90;;
75935;SDS011;64614;32.062;34.834;2023-07-20T09:58:27;4.38;;;2.90;;
75935;SDS011;64614;32.062;34.834;2023-07-20T10:00:56;3.90;;;2.60;;
75935;SDS011;64614;32.062;34.834;2023-07-20T10:05:57;5.40;;;2.80;;
75935;SDS011;64614;32.062;34.834;2023-07-20T10:08:27;4.05;;;2.50;;
75935;SDS011;64614;32.062;34.834;2023-07-20T10:10:54;4.18;;;2.70;;
75935;SDS011;64614;32.062;34.834;2023-07-20T10:13:26;4.20;;;2.80;;
75935;SDS011;64614;32.062;34.834;2023-07-20T10:16:03;5.15;;;3.15;;
75935;SDS011;64614;32.062;34.834;2023-07-20T10:18:38;5.22;;;2.72;;
75935;SDS011;64614;32.062;34.834;2023-07-20T10:21:13;4.10;;;2.60;;
75935;SDS011;64614;32.062;34.834;2023-07-20T10:23:42;4.90;;;2.75;;
75935;SDS011;64614;32.062;34.834;2023-07-20T10:26:08;4.40;;;2.80;;
75935;SDS011;64614;32.062;34.834;2023-07-20T10:28:36;4.53;;;2.65;;
75935;SDS011;64614;32.062;34.834;2023-07-20T10:31:03;4.75;;;2.78;;
75935;SDS011;64614;32.062;34.834;2023-07-20T10:33:29;4.35;;;2.53;;
75935;SDS011;64614;32.062;34.834;2023-07-20T10:35:56;4.25;;;2.70;;
75935;SDS011;64614;32.062;34.834;2023-07-20T10:44:01;5.97;;;2.80;;
75935;SDS011;64614;32.062;34.834;2023-07-20T10:46:34;4.30;;;2.90;;
75935;SDS011;64614;32.062;34.834;2023-07-20T10:49:09;4.25;;;2.80;;
75935;SDS011;64614;32.062;34.834;2023-07-20T10:54:10;3.55;;;2.42;;
75935;SDS011;64614;32.062;34.834;2023-07-20T10:56:58;4.55;;;2.53;;
75935;SDS011;64614;32.062;34.834;2023-07-20T10:59:49;4.18;;;2.65;;
75935;SDS011;64614;32.062;34.834;2023-07-20T11:02:17;4.25;;;2.42;;
75935;SDS011;64614;32.062;34.834;2023-07-20T11:04:45;3.55;;;2.53;;
75935;SDS011;64614;32.062;34.834;2023-07-20T11:07:15;4.22;;;2.45;;
75935;SDS011;64614;32.062;34.834;2023-07-20T11:09:43;5.10;;;2.67;;
75935;SDS011;64614;32.062;34.834;2023-07-20T11:12:12;4.20;;;2.53;;
75935;SDS011;64614;32.062;34.834;2023-07-20T11:14:43;4.13;;;2.58;;
75935;SDS011;64614;32.062;34.834;2023-07-20T11:17:19;4.50;;;2.47;;
75935;SDS011;64614;32.062;34.834;2023-07-20T11:19:50;3.88;;;2.65;;
75935;SDS011;64614;32.062;34.834;2023-07-20T11:22:21;4.07;;;2.58;;
75935;SDS011;64614;32.062;34.834;2023-07-20T11:24:47;5.07;;;2.80;;
75935;SDS011;64614;32.062;34.834;2023-07-20T11:27:14;3.90;;;2.63;;
75935;SDS011;64614;32.062;34.834;2023-07-20T11:29:40;4.32;;;2.67;;
75935;SDS011;64614;32.062;34.834;2023-07-20T11:32:06;4.07;;;2.67;;
75935;SDS011;64614;32.062;34.834;2023-07-20T11:34:32;4.68;;;2.80;;
75935;SDS011;64614;32.062;34.834;2023-07-20T11:36:59;3.60;;;2.72;;
75935;SDS011;64614;32.062;34.834;2023-07-20T11:39:25;4.80;;;2.67;;
75935;SDS011;64614;32.062;34.834;2023-07-20T11:41:52;4.63;;;2.70;;
75935;SDS011;64614;32.062;34.834;2023-07-20T11:44:22;4.22;;;2.60;;
75935;SDS011;64614;32.062;34.834;2023-07-20T11:47:08;4.50;;;2.80;;
75935;SDS011;64614;32.062;34.834;2023-07-20T11:49:39;3.83;;;2.50;;
75935;SDS011;64614;32.062;34.834;2023-07-20T11:52:07;4.80;;;2.80;;
75935;SDS011;64614;32.062;34.834;2023-07-20T11:54:34;4.00;;;2.60;;
75935;SDS011;64614;32.062;34.834;2023-07-20T11:57:01;4.55;;;2.88;;
75935;SDS011;64614;32.062;34.834;2023-07-20T11:59:27;5.22;;;2.90;;
75935;SDS011;64614;32.062;34.834;2023-07-20T12:01:53;4.97;;;2.88;;
75935;SDS011;64614;32.062;34.834;2023-07-20T12:04:18;4.60;;;2.78;;
75935;SDS011;64614;32.062;34.834;2023-07-20T12:06:45;4.18;;;2.80;;
75935;SDS011;64614;32.062;34.834;2023-07-20T12:09:15;3.95;;;2.58;;
75935;SDS011;64614;32.062;34.834;2023-07-20T12:11:43;4.50;;;2.80;;
75935;SDS011;64614;32.062;34.834;2023-07-20T12:14:10;4.38;;;2.85;;
75935;SDS011;64614;32.062;34.834;2023-07-20T12:16:36;4.45;;;2.97;;
75935;SDS011;64614;32.062;34.834;2023-07-20T12:19:09;4.07;;;2.63;;
75935;SDS011;64614;32.062;34.834;2023-07-20T12:21:39;3.95;;;2.42;;
75935;SDS011;64614;32.062;34.834;2023-07-20T12:24:06;4.72;;;2.85;;
75935;SDS011;64614;32.062;34.834;2023-07-20T12:26:34;3.92;;;2.58;;
75935;SDS011;64614;32.062;34.834;2023-07-20T12:29:00;5.30;;;2.95;;
75935;SDS011;64614;32.062;34.834;2023-07-20T12:31:26;5.70;;;3.03;;
75935;SDS011;64614;32.062;34.834;2023-07-20T12:33:53;4.35;;;2.80;;
75935;SDS011;64614;32.062;34.834;2023-07-20T12:36:22;4.80;;;3.00;;
75935;SDS011;64614;32.062;34.834;2023-07-20T12:38:48;5.47;;;3.13;;
75935;SDS011;64614;32.062;34.834;2023-07-20T12:41:14;4.57;;;3.15;;
75935;SDS011;64614;32.062;34.834;2023-07-20T12:43:43;4.00;;;2.63;;
75935;SDS011;64614;32.062;34.834;2023-07-20T12:46:09;4.28;;;2.85;;
75935;SDS011;64614;32.062;34.834;2023-07-20T12:48:39;4.38;;;2.67;;
75935;SDS011;64614;32.062;34.834;2023-07-20T12:51:07;4.60;;;2.80;;
75935;SDS011;64614;32.062;34.834;2023-07-20T12:53:34;4.50;;;3.08;;
75935;SDS011;64614;32.062;34.834;2023-07-20T12:55:59;4.70;;;3.20;;
75935;SDS011;64614;32.062;34.834;2023-07-20T12:58:26;5.63;;;3.03;;
75935;SDS011;64614;32.062;34.834;2023-07-20T13:00:52;4.68;;;3.03;;
75935;SDS011;64614;32.062;34.834;2023-07-20T13:05:48;4.60;;;2.90;;
75935;SDS011;64614;32.062;34.834;2023-07-20T13:08:15;4.82;;;3.20;;
75935;SDS011;64614;32.062;34.834;2023-07-20T13:10:41;5.22;;;3.10;;
75935;SDS011;64614;32.062;34.834;2023-07-20T13:13:08;4.78;;;3.03;;
75935;SDS011;64614;32.062;34.834;2023-07-20T13:15:40;5.13;;;3.15;;
75935;SDS011;64614;32.062;34.834;2023-07-20T13:18:07;4.20;;;2.70;;
75935;SDS011;64614;32.062;34.834;2023-07-20T13:20:33;5.65;;;3.15;;
75935;SDS011;64614;32.062;34.834;2023-07-20T13:22:58;5.05;;;3.20;;
75935;SDS011;64614;32.062;34.834;2023-07-20T13:25:24;4.22;;;2.60;;
75935;SDS011;64614;32.062;34.834;2023-07-20T13:27:52;5.88;;;3.17;;
75935;SDS011;64614;32.062;34.834;2023-07-20T13:30:18;4.45;;;2.65;;
75935;SDS011;64614;32.062;34.834;2023-07-20T13:32:44;4.50;;;3.10;;
75935;SDS011;64614;32.062;34.834;2023-07-20T13:35:13;5.35;;;3.40;;
75935;SDS011;64614;32.062;34.834;2023-07-20T13:37:39;5.35;;;3.33;;
75935;SDS011;64614;32.062;34.834;2023-07-20T13:40:07;6.15;;;3.60;;
75935;SDS011;64614;32.062;34.834;2023-07-20T13:42:39;4.57;;;2.83;;
75935;SDS011;64614;32.062;34.834;2023-07-20T13:45:05;5.28;;;3.15;;
75935;SDS011;64614;32.062;34.834;2023-07-20T13:47:31;5.00;;;3.17;;
75935;SDS011;64614;32.062;34.834;2023-07-20T13:49:57;5.20;;;3.15;;
75935;SDS011;64614;32.062;34.834;2023-07-20T13:52:23;5.22;;;3.13;;
75935;SDS011;64614;32.062;34.834;2023-07-20T13:54:48;4.88;;;2.80;;
75935;SDS011;64614;32.062;34.834;2023-07-20T13:57:14;5.03;;;3.13;;
75935;SDS011;64614;32.062;34.834;2023-07-20T13:59:43;4.57;;;2.88;;
75935;SDS011;64614;32.062;34.834;2023-07-20T14:02:10;4.97;;;2.92;;
75935;SDS011;64614;32.062;34.834;2023-07-20T14:04:36;5.43;;;3.53;;
75935;SDS011;64614;32.062;34.834;2023-07-20T14:07:02;5.05;;;3.00;;
75935;SDS011;64614;32.062;34.834;2023-07-20T14:09:27;5.35;;;3.15;;
75935;SDS011;64614;32.062;34.834;2023-07-20T14:11:53;5.82;;;3.08;;
75935;SDS011;64614;32.062;34.834;2023-07-20T14:14:19;5.60;;;3.15;;
75935;SDS011;64614;32.062;34.834;2023-07-20T14:16:44;5.75;;;3.75;;
75935;SDS011;64614;32.062;34.834;2023-07-20T14:19:10;5.40;;;3.20;;
75935;SDS011;64614;32.062;34.834;2023-07-20T14:21:36;5.07;;;3.35;;
75935;SDS011;64614;32.062;34.834;2023-07-20T14:24:01;5.45;;;3.55;;
75935;SDS011;64614;32.062;34.834;2023-07-20T14:26:27;5.78;;;3.72;;
75935;SDS011;64614;32.062;34.834;2023-07-20T14:28:52;6.53;;;3.38;;
75935;SDS011;64614;32.062;34.834;2023-07-20T14:31:18;4.82;;;3.42;;
75935;SDS011;64614;32.062;34.834;2023-07-20T14:33:45;6.03;;;3.50;;
75935;SDS011;64614;32.062;34.834;2023-07-20T14:36:10;6.10;;;3.35;;
75935;SDS011;64614;32.062;34.834;2023-07-20T14:38:36;5.15;;;3.53;;
75935;SDS011;64614;32.062;34.834;2023-07-20T14:41:02;5.20;;;3.30;;
75935;SDS011;64614;32.062;34.834;2023-07-20T14:43:28;5.80;;;3.42;;
75935;SDS011;64614;32.062;34.834;2023-07-20T14:45:53;5.88;;;3.47;;
75935;SDS011;64614;32.062;34.834;2023-07-20T14:48:21;5.38;;;3.45;;
75935;SDS011;64614;32.062;34.834;2023-07-20T14:50:47;5.60;;;3.40;;
75935;SDS011;64614;32.062;34.834;2023-07-20T14:53:13;5.55;;;2.95;;
75935;SDS011;64614;32.062;34.834;2023-07-20T14:55:39;5.82;;;3.75;;